RPLC METAR and TAF | Updated Today

RPLC METAR

Diosdado Macapagal International Airport

Observation time: 40 min. ago

RPLC 011500Z 34004KT 9999 FEW020 24/20 Q1014 NOSIG RMK A2994

Need help? Read our tutorial on how to read METARs or read the parsed version below.

Diosdado Macapagal International Airport (RPLC) METAR

  • Weather conditions on Wed, 01 Feb 2023 15:00:00 +0000 (40 min. ago):
  • Present conditions: Dry
  • Clouds: A few at 610 meters
  • Visibility: Greater than 10 km
  • Wind: 340 degrees at 4 knots
  • Temperature: 24 celsius
  • Dew point: 20 celsius
  • Pressure: 1014 millibars
  • Remarks: A2994


Useful to know...

RPLC TAF

Diosdado Macapagal International Airport

TAF RPLC 011100Z 0112/0218 04006KT 9999 FEW020 BKN300 TX31/0206Z TN23/0121Z TEMPO 0112/0118 07008KT SCT020 BKN300
Observation time: 4:40 hr. ago
Need help? Read our tutorial on how to read TAFs or read the parsed version below.

Parsed version of TAF for Diosdado Macapagal International Airport (RPLC)

  • From 01 February at 12:00 UTC, to day 02 of the month at 18:00 UTC
  • Clouds: A few at 610 meters; broken sky at 9144 meters
  • Visibility: Greater than 10 km
  • Wind: 40 degrees at 6
  • Expected to arise temporarily, from 01 February at 12:00 UTC, to day 01 of the month at 18:00 UTC
  • Clouds: Scattered at 610 meters; broken sky at 9144 meters
  • Wind: 70 degrees at 8